Flight Track Log - Related Links

Times and Time Zones

All times are in EDT time to prevent confusion due to time zone crossing. See the SWA1688 flight status page for this flight to view local times or setup timezone preferences in your user account.

Time Position Orientation Groundspeed Altitude Reporting Facility
EDT Latitude Longitude Course Direction KTS MPH feet Rate Location/Type
Thu 10:19:06 PM 28.4167 -81.3000 150° Southeast 142 163 700  Level Orlando TRACON
Thu 10:20:13 PM 28.3667 -81.2667 150° Southeast 209 241 3,500 3,151 Climbing Orlando TRACON
Thu 10:21:25 PM 28.3000 -81.2333 156° South 200 230 8,000 3,136 Climbing Orlando TRACON
Thu 10:22:25 PM 28.3167 -81.1833 69° East 262 302 10,400 2,386 Climbing Orlando TRACON
Thu 10:24:16 PM 28.4667 -81.2136 350° North 300 345 14,800 2,842 Climbing Jacksonville Center
Thu 10:25:16 PM 28.5692 -81.2403 347° North 339 390 18,500 3,550 Climbing Jacksonville Center
Thu 10:26:16 PM 28.6719 -81.2717 345° North 365 420 21,900 3,050 Climbing Jacksonville Center
Thu 10:27:16 PM 28.7767 -81.3008 346° North 382 440 24,600 2,600 Climbing Jacksonville Center
Thu 10:28:16 PM 28.8917 -81.3297 348° North 395 455 27,100 2,400 Climbing Jacksonville Center
Thu 10:29:16 PM 29.0047 -81.3614 346° North 407 468 29,400 2,150 Climbing Jacksonville Center
Thu 10:30:16 PM 29.1242 -81.3950 346° North 420 483 31,400 2,300 Climbing Jacksonville Center
Thu 10:31:16 PM 29.2492 -81.3814 North 442 509 34,000 2,500 Climbing Jacksonville Center
Thu 10:32:16 PM 29.3697 -81.3414 16° North 442 509 36,400 1,950 Climbing Jacksonville Center
Thu 10:33:16 PM 29.4864 -81.3061 15° North 442 509 37,900 1,300 Climbing Jacksonville Center
Thu 10:34:16 PM 29.6069 -81.2658 16° North 442 509 39,000 1,400 Climbing Jacksonville Center
Thu 10:35:16 PM 29.7275 -81.2256 16° North 442 509 40,700 1,000 Climbing Jacksonville Center
Thu 10:36:16 PM 29.8458 -81.1853 16° North 442 509 41,000 150 Climbing Jacksonville Center
Thu 10:37:16 PM 29.9644 -81.1447 16° North 442 509 41,000  Level Jacksonville Center
Thu 10:38:16 PM 30.0806 -81.1042 17° North 437 503 41,000  Level Jacksonville Center
Thu 10:39:16 PM 30.1969 -81.0636 17° North 437 503 41,000  Level Jacksonville Center
Thu 10:40:16 PM 30.3156 -81.0253 16° North 437 503 41,000  Level Jacksonville Center
Thu 10:41:16 PM 30.4339 -80.9869 16° North 437 503 41,000  Level Jacksonville Center
Thu 10:42:16 PM 30.5500 -80.9386 20° North 437 503 41,000  Level Jacksonville Center
Thu 10:43:16 PM 30.6661 -80.8833 22° Northeast 443 510 41,000  Level Jacksonville Center
Thu 10:44:16 PM 30.7800 -80.8275 23° Northeast 448 516 41,000  Level Jacksonville Center
Thu 10:45:16 PM 30.8961 -80.7717 22° Northeast 448 516 41,000  Level Jacksonville Center
Thu 10:46:16 PM 31.0119 -80.7158 22° Northeast 448 516 41,000  Level Jacksonville Center
Thu 10:47:16 PM 31.1281 -80.6597 22° Northeast 448 516 41,000  Level Jacksonville Center
Thu 10:48:16 PM 31.2439 -80.6086 21° North 448 516 41,000  Level Jacksonville Center
Thu 10:49:16 PM 31.3578 -80.5497 24° Northeast 448 516 41,000  Level Jacksonville Center
Thu 10:50:16 PM 31.4717 -80.4958 22° Northeast 449 517 41,000  Level Jacksonville Center
Thu 10:51:16 PM 31.5731 -80.4444 23° Northeast 449 517 41,000  Level Jacksonville Center
Thu 10:52:16 PM 31.6908 -80.3875 22° Northeast 449 517 41,000  Level Jacksonville Center
Thu 10:53:16 PM 31.8044 -80.3306 23° Northeast 449 517 41,000  Level Jacksonville Center
Thu 10:54:16 PM 31.9203 -80.2736 23° Northeast 449 517 41,000  Level Jacksonville Center
Thu 10:55:16 PM 32.0381 -80.2139 23° Northeast 449 517 41,000  Level Jacksonville Center
Thu 10:56:16 PM 32.1558 -80.1564 22° Northeast 449 517 41,000  Level Jacksonville Center
Thu 10:57:16 PM 32.2714 -80.0989 23° Northeast 449 517 41,000  Level Jacksonville Center
Thu 10:58:16 PM 32.3911 -80.0411 22° Northeast 449 517 41,000  Level Jacksonville Center
Thu 10:59:16 PM 32.5089 -79.9808 23° Northeast 449 517 41,000  Level Jacksonville Center
Thu 11:00:16 PM 32.6244 -79.9228 23° Northeast 449 517 41,000  Level Jacksonville Center
Thu 11:01:16 PM 32.7439 -79.8622 23° Northeast 449 517 41,000  Level Jacksonville Center
Thu 11:02:16 PM 32.8594 -79.8039 23° Northeast 449 517 41,000 -200 Level Jacksonville Center
Thu 11:03:16 PM 32.9769 -79.7453 23° Northeast 449 517 40,600 -700 Descending Jacksonville Center
Thu 11:04:16 PM 33.0986 -79.6842 23° Northeast 449 517 39,600 -800 Descending Jacksonville Center
Thu 11:05:16 PM 33.2119 -79.6253 23° Northeast 449 517 39,000 -300 Descending Jacksonville Center
Thu 11:06:16 PM 33.3272 -79.5664 23° Northeast 449 517 39,000  Level Jacksonville Center
Thu 11:07:16 PM 33.4447 -79.5097 22° Northeast 449 517 39,000  Level Jacksonville Center
Thu 11:08:16 PM 33.5600 -79.4506 23° Northeast 449 517 39,000  Level Jacksonville Center
Thu 11:09:18 PM 33.6753 -79.3911 23° Northeast 449 517 39,000  Level Jacksonville Center
Thu 11:10:16 PM 33.7842 -79.3369 22° Northeast 438 504 39,000  Level Jacksonville Center
Thu 11:11:16 PM 33.9014 -79.2769 23° Northeast 444 511 39,000  Level Jacksonville Center
Thu 11:13:02 PM 34.1183 -79.1664 23° Northeast 441 507 39,000  Level Washington Center
Thu 11:14:02 PM 34.2311 -79.0958 27° Northeast 441 507 39,000  Level Washington Center
Thu 11:15:04 PM 34.3392 -79.0428 22° Northeast 462 532 39,000  Level Washington Center
Thu 11:16:02 PM 34.4678 -78.9878 19° North 456 525 39,000  Level Washington Center
Thu 11:17:03 PM 34.5739 -78.9314 24° Northeast 451 519 39,000  Level Washington Center
Thu 11:18:04 PM 34.6919 -78.8808 19° North 451 519 39,000  Level Washington Center
Thu 11:19:04 PM 34.8103 -78.8247 21° North 451 519 39,000  Level Washington Center
Thu 11:20:03 PM 34.9244 -78.7711 21° North 451 519 39,000  Level Washington Center
Thu 11:21:03 PM 35.0450 -78.7150 21° North 451 519 39,000  Level Washington Center
Thu 11:22:02 PM 35.1631 -78.6611 20° North 451 519 39,000  Level Washington Center
Thu 11:23:02 PM 35.2772 -78.6044 22° Northeast 456 525 39,000  Level Washington Center
Thu 11:24:03 PM 35.3956 -78.5478 21° North 456 525 39,000  Level Washington Center
Thu 11:25:03 PM 35.5244 -78.4861 21° North 451 519 39,000  Level Washington Center
Thu 11:26:01 PM 35.6467 -78.4292 21° North 451 519 39,000  Level Washington Center
Thu 11:27:02 PM 35.7628 -78.3744 21° North 453 521 39,000  Level Washington Center
Thu 11:28:03 PM 35.8789 -78.3197 21° North 448 516 39,000  Level Washington Center
Thu 11:29:03 PM 35.9928 -78.2669 21° North 443 510 39,000  Level Washington Center
Thu 11:30:04 PM 36.1086 -78.2119 21° North 443 510 39,000  Level Washington Center
Thu 11:31:04 PM 36.2225 -78.1539 22° Northeast 437 503 39,000  Level Washington Center
Thu 11:32:02 PM 36.3364 -78.0983 21° North 437 503 39,000  Level Washington Center
Thu 11:33:02 PM 36.4503 -78.0450 21° North 437 503 39,000  Level Washington Center
Thu 11:34:03 PM 36.5642 -77.9867 22° Northeast 437 503 39,000  Level Washington Center
Thu 11:35:03 PM 36.6778 -77.9306 22° Northeast 437 503 39,000  Level Washington Center
Thu 11:36:02 PM 36.7936 -77.8769 20° North 437 503 39,000  Level Washington Center
Thu 11:37:02 PM 36.9053 -77.8206 22° Northeast 437 503 39,000  Level Washington Center
Thu 11:38:02 PM 37.0189 -77.7639 22° Northeast 437 503 39,000  Level Washington Center
Thu 11:39:02 PM 37.1178 -77.7147 22° Northeast 432 497 39,000  Level Washington Center
Thu 11:40:03 PM 37.2272 -77.6603 22° Northeast 422 486 39,000  Level Washington Center
Thu 11:41:02 PM 37.3344 -77.6083 21° North 417 480 39,000  Level Washington Center
Thu 11:42:03 PM 37.4503 -77.5486 22° Northeast 417 480 39,000  Level Washington Center
Thu 11:43:01 PM 37.5492 -77.4989 22° Northeast 417 480 39,000  Level Washington Center
Thu 11:44:02 PM 37.6647 -77.4386 22° Northeast 417 480 39,000  Level Washington Center
Thu 11:45:04 PM 37.7739 -77.3861 21° North 417 480 39,000  Level Washington Center
Thu 11:46:04 PM 37.8811 -77.3308 22° Northeast 417 480 39,000  Level Washington Center
Thu 11:47:01 PM 37.9906 -77.2728 23° Northeast 417 480 39,000  Level Washington Center
Thu 11:48:03 PM 38.0869 -77.2275 20° North 412 474 39,000  Level Washington Center
Thu 11:49:02 PM 38.1964 -77.1664 24° Northeast 417 480 39,000  Level Washington Center
Thu 11:50:02 PM 38.3181 -77.1056 21° North 417 480 39,000  Level Washington Center
Thu 11:51:02 PM 38.4103 -77.0597 21° North 411 473 39,000  Level Washington Center
Thu 11:52:01 PM 38.5172 -77.0033 22° Northeast 411 473 39,000  Level Washington Center
Thu 11:53:01 PM 38.6242 -76.9469 22° Northeast 411 473 39,000  Level Washington Center
Thu 11:54:02 PM 38.7311 -76.8903 22° Northeast 417 480 39,000  Level Washington Center
Thu 11:56:29 PM 39.0069 -76.7483 22° Northeast 418 481 39,000  Level New York Center
Thu 11:57:30 PM 39.1161 -76.6906 22° Northeast 418 481 39,000  Level New York Center
Thu 11:58:30 PM 39.2261 -76.6219 26° Northeast 424 488 39,000  Level New York Center
Thu 11:59:30 PM 39.3344 -76.5397 30° Northeast 436 502 39,000  Level New York Center
Fri 12:00:31 AM 39.4386 -76.4567 32° Northeast 441 507 39,000  Level New York Center
Fri 12:01:28 AM 39.5444 -76.3764 30° Northeast 441 507 39,000  Level New York Center
Fri 12:02:28 AM 39.6528 -76.2933 31° Northeast 441 507 39,000  Level New York Center
Fri 12:03:29 AM 39.7567 -76.2122 31° Northeast 446 513 39,000  Level New York Center
Fri 12:04:28 AM 39.8558 -76.1361 30° Northeast 453 521 39,000  Level New York Center
Fri 12:05:28 AM 39.9575 -76.0572 31° Northeast 441 507 39,000  Level New York Center
Fri 12:06:28 AM 40.0556 -75.9589 37° Northeast 441 507 39,000 -400 Level New York Center
Fri 12:07:28 AM 40.1383 -75.8319 50° Northeast 436 502 38,200 -1,475 Descending New York Center
Fri 12:08:30 AM 40.2164 -75.7125 49° Northeast 436 502 36,000 -2,500 Descending New York Center
Fri 12:09:28 AM 40.3033 -75.5744 50° Northeast 436 502 33,200 -2,850 Descending New York Center
Fri 12:10:30 AM 40.3856 -75.4467 50° Northeast 449 517 30,300 -2,083 Descending New York Center
Fri 12:11:29 AM 40.4719 -75.3161 49° Northeast 460 529 29,000 -645 Descending New York Center
Fri 12:12:31 AM 40.5603 -75.1883 48° Northeast 460 529 29,000  Level New York Center
Fri 12:14:56 AM 40.8147 -74.9878 31° Northeast 460 529 29,000  Level Boston Center
Fri 12:15:56 AM 40.9289 -74.9153 26° Northeast 448 516 29,000  Level Boston Center
Fri 12:16:56 AM 41.0494 -74.8403 25° Northeast 435 501 29,000 -650 Level Boston Center
Fri 12:17:56 AM 41.1614 -74.7700 25° Northeast 435 501 27,700 -1,100 Descending Boston Center
Fri 12:18:56 AM 41.2667 -74.7103 23° Northeast 441 507 26,800 -850 Descending Boston Center
Fri 12:19:56 AM 41.3744 -74.6394 26° Northeast 446 513 26,000 -400 Descending Boston Center
Fri 12:20:56 AM 41.4822 -74.5681 26° Northeast 436 502 26,000  Level Boston Center
Fri 12:21:56 AM 41.5961 -74.4914 27° Northeast 421 484 26,000 -1,200 Level Boston Center
Fri 12:22:56 AM 41.7036 -74.4256 25° Northeast 421 484 23,600 -2,650 Descending Boston Center
Fri 12:23:56 AM 41.7961 -74.3700 24° Northeast 420 483 20,700 -3,050 Descending Boston Center
Fri 12:24:56 AM 41.8975 -74.3006 27° Northeast 399 459 17,500 -3,150 Descending Boston Center
Fri 12:25:56 AM 42.0047 -74.2311 26° Northeast 381 438 14,400 -3,064 Descending Boston Center
Fri 12:26:30 AM 42.0575 -74.1961 26° Northeast 379 436 12,700 -2,500 Descending Boston Center
Fri 12:26:56 AM 42.0869 -74.1772 25° Northeast 381 438 11,900 -1,455 Descending Boston Center
Fri 12:27:36 AM 42.1544 -74.1344 25° Northeast 357 411 11,100 -800 Descending Boston Center
Fri 12:27:56 AM 42.1858 -74.1128 27° Northeast 358 412 11,100 -590 Level Boston Center
Fri 12:28:37 AM 42.2386 -74.0778 26° Northeast 297 342 10,500 -1,000 Descending Boston Center
Fri 12:28:56 AM 42.2597 -74.0614 30° Northeast 309 356 10,100 -1,700 Descending Boston Center
Fri 12:29:37 AM 42.3100 -74.0347 21° North 276 318 8,800 -1,357 Descending Boston Center
Fri 12:30:20 AM 42.3375 -74.0131 30° Northeast 285 328 8,200 -1,574 Descending Boston Center
Fri 12:30:38 AM 42.3775 -73.9858 27° Northeast 281 323 7,200 -2,000 Descending Boston Center
Fri 12:31:20 AM 42.4217 -73.9561 26° Northeast 280 322 6,200 -1,475 Descending Boston Center
Fri 12:31:39 AM 42.4489 -73.9425 20° North 280 322 5,700 -1,200 Descending Boston Center
Fri 12:32:20 AM 42.4950 -73.9100 27° Northeast 275 316 5,000 -1,100 Descending Boston Center
Fri 12:32:39 AM 42.5139 -73.8992 23° Northeast 256 295 4,600 -900 Descending Boston Center
Fri 12:33:20 AM 42.5478 -73.8744 28° Northeast 249 287 4,100 -689 Descending Boston Center
Fri 12:33:40 AM 42.5708 -73.8608 23° Northeast 216 249 3,900 -800 Descending Boston Center
Fri 12:34:20 AM 42.5919 -73.8444 30° Northeast 210 242 3,300 -1,000 Descending Boston Center
Fri 12:34:40 AM 42.6147 -73.8339 19° North 171 197 2,900 -700 Descending Boston Center
Fri 12:35:20 AM 42.6400 -73.8144 30° Northeast 183 211 2,600 -590 Descending Boston Center
Fri 12:35:41 AM 42.6547 -73.8036 28° Northeast 139 160 2,300 -500 Descending Boston Center
Fri 12:36:20 AM 42.6864 -73.7844 24° Northeast 167 192 2,100 -984 Descending Boston Center
Fri 12:36:42 AM 42.6881 -73.8044 276° West 114 131 1,300 -1,024 Descending Boston Center
Fri 12:37:42 AM 42.7194 -73.8078 356° North 108 124 700 -600 Descending Boston Center

Login

Don't have an account? Register now (free) for customized features, flight alerts, and more!